Time;durP1;ratioP1;P1;durP2;ratioP2;P2;SDS_P1;SDS_P2;PMS_P1;PMS_P2;Temp;Humidity;BMP_temperature;BMP_pressure;BME280_temperature;BME280_humidity;BME280_pressure;Samples;Min_cycle;Max_cycle;Signal;HPM_P1;HPM_P2
2021/11/20 00:00:59;;;;;;;10.95;6.28;;;;;;;11.36;74.39;101554.88;4987117;28;20448;-80
2021/11/20 00:03:25;;;;;;;8.75;6.30;;;;;;;11.39;74.42;101544.31;4985249;28;20068;-79
2021/11/20 00:05:53;;;;;;;9.75;5.97;;;;;;;11.37;74.31;101546.09;4982688;28;20379;-79
2021/11/20 00:08:21;;;;;;;10.05;6.50;;;;;;;11.38;74.51;101547.84;4982571;28;20050;-79
2021/11/20 00:10:49;;;;;;;11.18;6.50;;;;;;;11.31;74.58;101546.03;4963404;28;20067;-78
2021/11/20 00:13:16;;;;;;;10.18;6.20;;;;;;;11.31;74.82;101546.03;4984854;28;20030;-79
2021/11/20 00:15:54;;;;;;;11.10;7.30;;;;;;;11.33;74.44;101549.56;4984203;28;20081;-78
2021/11/20 00:18:21;;;;;;;10.98;7.05;;;;;;;11.31;74.83;101540.72;4983603;28;20493;-79
2021/11/20 00:20:52;;;;;;;13.68;6.60;;;;;;;11.32;74.80;101546.94;4986038;28;20034;-79
2021/11/20 00:23:22;;;;;;;8.83;6.37;;;;;;;11.37;74.67;101550.47;4965281;28;20042;-79
2021/11/20 00:25:51;;;;;;;10.65;6.68;;;;;;;11.36;74.73;101556.63;4979398;28;20031;-78
2021/11/20 00:28:28;;;;;;;9.95;6.35;;;;;;;11.33;74.80;101541.63;4986047;28;20038;-79
2021/11/20 00:30:59;;;;;;;12.25;6.40;;;;;;;11.40;74.90;101542.56;4950906;28;20031;-78
2021/11/20 00:33:30;;;;;;;10.98;6.95;;;;;;;11.43;74.33;101562.84;4966241;28;20030;-78
2021/11/20 00:35:59;;;;;;;14.15;6.43;;;;;;;11.41;74.15;101545.22;4935685;28;20490;-79
2021/11/20 00:38:27;;;;;;;11.15;6.25;;;;;;;11.44;73.95;101547.00;4982096;28;20053;-80
2021/11/20 00:40:56;;;;;;;12.82;6.68;;;;;;;11.46;74.20;101549.66;4968535;28;20408;-79
2021/11/20 00:43:23;;;;;;;11.48;6.82;;;;;;;11.50;73.90;101543.50;4968485;28;20041;-79
2021/11/20 00:45:49;;;;;;;11.27;7.13;;;;;;;11.54;74.06;101540.88;4983471;28;20042;-79
2021/11/20 00:48:16;;;;;;;11.43;7.53;;;;;;;11.50;74.18;101551.44;4964818;28;20070;-78
2021/11/20 00:50:45;;;;;;;11.90;7.45;;;;;;;11.54;74.29;101550.59;4986201;28;20101;-79
2021/11/20 00:53:12;;;;;;;13.23;7.75;;;;;;;11.66;73.51;101547.09;4950822;28;20027;-79
2021/11/20 00:55:37;;;;;;;14.05;7.95;;;;;;;11.61;73.81;101544.47;4966353;28;20069;-82
2021/11/20 00:58:04;;;;;;;11.38;7.30;;;;;;;11.60;74.18;101545.31;4983662;28;20054;-80
2021/11/20 01:00:35;;;;;;;13.05;7.80;;;;;;;11.61;74.15;101545.34;4966752;28;20030;-78
2021/11/20 01:03:02;;;;;;;12.18;7.88;;;;;;;11.60;73.98;101540.03;4950383;28;20097;-78
2021/11/20 01:05:28;;;;;;;13.00;8.18;;;;;;;11.61;73.93;101537.41;4981556;28;20035;-82
2021/11/20 01:07:55;;;;;;;12.80;8.88;;;;;;;11.65;74.44;101540.06;4963726;28;20117;-79
2021/11/20 01:10:28;;;;;;;13.48;8.07;;;;;;;11.65;73.71;101543.59;4967982;28;20179;-81
2021/11/20 01:12:55;;;;;;;17.40;8.10;;;;;;;11.61;74.13;101531.25;4965544;28;20081;-80
2021/11/20 01:15:28;;;;;;;14.02;8.45;;;;;;;11.62;74.51;101527.72;4934481;28;20576;-79
2021/11/20 01:17:54;;;;;;;12.60;8.15;;;;;;;11.70;74.20;101522.47;4965297;28;20034;-82
2021/11/20 01:20:20;;;;;;;13.50;8.25;;;;;;;11.66;74.55;101526.88;4950792;28;20041;-79
2021/11/20 01:22:52;;;;;;;;;;;;;;;11.64;74.68;101533.91;4965131;28;20117;-78
2021/11/20 01:25:29;;;;;;;14.82;9.63;;;;;;;11.61;74.57;101539.19;4961012;28;19956;-80
2021/11/20 01:28:06;;;;;;;12.10;8.02;;;;;;;11.70;73.81;101533.91;4947258;28;20031;-78
2021/11/20 01:30:48;;;;;;;13.13;8.57;;;;;;;11.59;74.28;101525.06;4949788;28;20125;-79
2021/11/20 01:33:20;;;;;;;15.47;8.10;;;;;;;11.61;74.56;101539.19;4963809;28;20034;-79
2021/11/20 01:35:47;;;;;;;10.77;7.88;;;;;;;11.65;74.20;101538.31;4944708;29;20588;-82
2021/11/20 01:38:16;;;;;;;11.88;8.13;;;;;;;11.67;74.03;101547.13;4967420;28;20034;-79
2021/11/20 01:40:45;;;;;;;13.88;8.68;;;;;;;11.59;74.19;101539.16;4944457;28;20034;-78
2021/11/20 01:43:19;;;;;;;13.98;8.15;;;;;;;11.62;73.95;101533.00;4967446;28;20453;-82
2021/11/20 01:45:54;;;;;;;12.93;8.55;;;;;;;11.59;74.33;101535.63;4932630;28;20034;-79
2021/11/20 01:48:58;;;;;;;11.27;7.88;;;;;;;11.60;74.56;101532.97;4964972;28;20038;-79
2021/11/20 01:51:36;;;;;;;14.38;8.52;;;;;;;11.59;74.62;101540.91;4956590;28;20086;-79
2021/11/20 01:54:34;;;;;;;13.88;8.65;;;;;;;11.66;74.69;101529.50;4963190;28;20054;-79
2021/11/20 01:57:38;;;;;;;16.02;9.68;;;;;;;11.66;74.97;101540.09;4980688;28;20034;-78
2021/11/20 02:00:09;;;;;;;15.35;8.95;;;;;;;11.63;74.83;101540.94;4962700;28;20061;-77
2021/11/20 02:02:58;;;;;;;14.65;9.38;;;;;;;11.67;74.70;101528.63;4980382;28;20039;-79
2021/11/20 02:05:41;;;;;;;;;;;;;;;11.70;74.75;101522.47;4963689;28;20046;-78
2021/11/20 02:08:35;;;;;;;16.20;8.80;;;;;;;11.65;74.83;101530.38;4959687;28;19918;-79
2021/11/20 02:11:09;;;;;;;13.98;8.98;;;;;;;11.67;74.72;101536.56;4946606;28;20031;-79
2021/11/20 02:13:36;;;;;;;15.13;9.13;;;;;;;11.72;74.37;101529.53;4963939;28;20149;-79
2021/11/20 02:16:06;;;;;;;16.48;9.43;;;;;;;11.61;74.64;101523.31;4966488;28;20030;-79
2021/11/20 02:18:36;;;;;;;17.88;10.15;;;;;;;11.63;74.98;101517.16;4949966;28;20050;-79
2021/11/20 02:21:17;;;;;;;14.40;9.65;;;;;;;11.61;74.72;101524.19;4963847;28;20049;-79
2021/11/20 02:23:47;;;;;;;13.00;9.27;;;;;;;11.60;75.28;101525.03;4961145;28;20031;-79
2021/11/20 02:26:12;;;;;;;14.00;9.63;;;;;;;11.60;75.68;101516.25;4966259;28;20061;-79
2021/11/20 02:29:04;;;;;;;17.75;10.57;;;;;;;11.59;75.79;101518.00;4982998;28;20512;-79
2021/11/20 02:32:06;;;;;;;19.80;11.38;;;;;;;11.60;75.76;101513.59;4977973;28;20043;-81
2021/11/20 02:34:47;;;;;;;17.13;11.23;;;;;;;11.53;76.15;101525.91;4962807;28;20031;-79
2021/11/20 02:37:15;;;;;;;17.67;11.82;;;;;;;11.53;76.33;101522.38;4964730;28;20405;-78
2021/11/20 02:39:44;;;;;;;18.75;11.15;;;;;;;11.51;76.63;101510.91;4928066;28;20685;-78
2021/11/20 02:42:19;;;;;;;16.45;11.38;;;;;;;11.44;77.14;101530.25;4961187;28;20126;-79
2021/11/20 02:44:58;;;;;;;19.30;12.25;;;;;;;11.48;77.06;101529.41;4960250;28;20033;-82
2021/11/20 02:47:25;;;;;;;20.95;11.63;;;;;;;11.41;77.35;101516.13;4983806;28;20035;-79
2021/11/20 02:49:52;;;;;;;18.58;12.27;;;;;;;11.41;77.56;101518.78;4931909;28;20038;-79
2021/11/20 02:52:21;;;;;;;21.48;12.32;;;;;;;11.35;77.73;101521.38;4966377;28;20158;-79
2021/11/20 02:54:49;;;;;;;18.58;12.23;;;;;;;11.41;77.56;101510.84;4963147;28;20033;-81
2021/11/20 02:57:26;;;;;;;23.58;12.15;;;;;;;11.46;77.08;101510.00;4962844;28;20039;-79
2021/11/20 02:59:52;;;;;;;17.42;11.73;;;;;;;11.42;77.15;101506.44;4962270;28;20058;-80
2021/11/20 03:02:22;;;;;;;17.13;12.73;;;;;;;11.43;77.14;101508.22;4964944;28;20038;-80
2021/11/20 03:04:48;;;;;;;17.55;11.32;;;;;;;11.45;77.33;101521.44;4966469;28;20030;-81
2021/11/20 03:07:15;;;;;;;21.45;12.60;;;;;;;11.34;78.15;101503.78;4980263;28;20033;-79
2021/11/20 03:09:42;;;;;;;20.92;12.60;;;;;;;11.31;78.29;101513.44;4964024;28;20041;-79
2021/11/20 03:12:15;;;;;;;18.17;11.70;;;;;;;11.34;78.41;101502.88;4964667;28;20440;-78
2021/11/20 03:14:45;;;;;;;21.53;13.90;;;;;;;11.34;77.87;101506.41;4948975;28;20402;-78
2021/11/20 03:17:12;;;;;;;17.80;12.15;;;;;;;11.34;77.80;101506.41;4962453;28;20051;-78
2021/11/20 03:19:44;;;;;;;19.25;12.15;;;;;;;11.34;77.68;101506.41;4963763;28;20414;-79
2021/11/20 03:22:16;;;;;;;21.02;12.27;;;;;;;11.33;78.10;101509.91;4963988;28;20034;-79
2021/11/20 03:24:42;;;;;;;22.20;13.15;;;;;;;11.36;77.76;101502.00;4969107;28;20161;-78
2021/11/20 03:27:08;;;;;;;17.55;13.18;;;;;;;11.35;78.03;101497.59;4963823;28;20066;-78
2021/11/20 03:29:34;;;;;;;19.98;12.32;;;;;;;11.31;78.24;101494.94;4963007;28;20593;-78
2021/11/20 03:32:01;;;;;;;18.70;12.65;;;;;;;11.38;78.27;101505.53;4950726;28;20413;-79
2021/11/20 03:34:30;;;;;;;17.27;11.15;;;;;;;11.38;77.86;101489.69;4967597;28;20142;-82
2021/11/20 03:36:56;;;;;;;22.08;13.98;;;;;;;11.37;78.06;101493.22;4952052;28;20035;-78
2021/11/20 03:39:28;;;;;;;;;;;;;;;11.29;78.38;101492.28;4966225;28;20406;-78
2021/11/20 03:41:54;;;;;;;21.20;12.85;;;;;;;11.34;78.87;101495.84;4969476;28;20056;-79
2021/11/20 03:44:20;;;;;;;20.33;12.15;;;;;;;11.29;78.99;101500.22;4967377;28;20101;-79
2021/11/20 03:46:48;;;;;;;18.95;12.82;;;;;;;11.29;79.07;101488.75;4952071;28;20050;-81
2021/11/20 03:49:15;;;;;;;18.90;12.63;;;;;;;11.31;79.29;101479.94;4952065;28;20034;-80
2021/11/20 03:51:40;;;;;;;18.23;12.75;;;;;;;11.26;79.88;101489.59;4967471;28;20134;-79
2021/11/20 03:54:07;;;;;;;16.27;12.50;;;;;;;11.23;80.31;101488.72;4969151;28;20378;-78
2021/11/20 03:56:33;;;;;;;16.50;11.60;;;;;;;11.18;80.30;101489.56;4968418;28;20034;-79
2021/11/20 03:58:59;;;;;;;17.48;12.20;;;;;;;11.23;80.23;101484.31;4983800;28;20035;-79
2021/11/20 04:01:28;;;;;;;18.35;12.35;;;;;;;11.15;80.67;101492.19;4968653;28;20034;-79
2021/11/20 04:03:54;;;;;;;19.65;12.32;;;;;;;11.22;80.47;101489.59;4949991;28;20138;-79
2021/11/20 04:06:21;;;;;;;20.88;13.05;;;;;;;11.23;80.03;101492.22;4967716;28;20034;-78
2021/11/20 04:08:57;;;;;;;17.83;12.30;;;;;;;11.18;80.37;101480.75;4968596;28;20556;-78
2021/11/20 04:11:28;;;;;;;19.75;12.20;;;;;;;11.14;80.80;101474.56;4986748;28;20038;-79
2021/11/20 04:13:54;;;;;;;17.95;13.00;;;;;;;11.20;80.77;101486.94;4951161;28;20450;-78
2021/11/20 04:16:23;;;;;;;18.50;13.07;;;;;;;11.21;81.10;101480.75;4980679;28;20034;-78
2021/11/20 04:18:50;;;;;;;18.27;12.18;;;;;;;11.21;80.92;101475.47;4948822;28;20039;-81
2021/11/20 04:21:17;;;;;;;18.50;12.18;;;;;;;11.19;81.09;101482.53;4968485;28;20437;-78
2021/11/20 04:23:45;;;;;;;19.85;12.13;;;;;;;11.20;81.30;101486.94;4967271;28;20124;-78
2021/11/20 04:26:13;;;;;;;18.92;11.95;;;;;;;11.17;81.55;101484.28;4966774;28;20039;-79
2021/11/20 04:28:40;;;;;;;18.98;11.68;;;;;;;11.14;81.48;101486.91;4967481;28;20122;-78
2021/11/20 04:31:23;;;;;;;16.37;11.70;;;;;;;11.14;81.72;101490.41;4935021;28;20121;-79
2021/11/20 04:33:51;;;;;;;20.70;12.85;;;;;;;11.12;81.77;101493.94;4968359;28;20289;-81
2021/11/20 04:36:19;;;;;;;17.35;11.10;;;;;;;11.12;81.67;101480.72;4965440;28;20059;-78
2021/11/20 04:38:45;;;;;;;14.40;10.63;;;;;;;11.14;82.14;101481.63;4968445;28;20062;-78
2021/11/20 04:41:13;;;;;;;20.35;11.85;;;;;;;11.13;81.74;101482.47;4965665;28;20557;-79
2021/11/20 04:43:40;;;;;;;17.70;10.85;;;;;;;11.16;81.88;101480.75;4935100;28;20062;-80
2021/11/20 04:46:06;;;;;;;14.88;10.77;;;;;;;11.11;81.62;101477.19;4965804;28;20038;-78
2021/11/20 04:48:33;;;;;;;19.13;11.43;;;;;;;11.11;82.17;101477.19;4935908;28;20038;-81
2021/11/20 04:51:02;;;;;;;18.33;12.10;;;;;;;11.17;81.62;101484.28;4964800;28;20042;-81
2021/11/20 04:53:31;;;;;;;20.02;12.38;;;;;;;11.15;81.43;101481.59;4966967;28;20405;-79
2021/11/20 04:55:58;;;;;;;16.90;11.65;;;;;;;11.12;81.14;101473.66;4965797;28;20030;-78
2021/11/20 04:58:25;;;;;;;17.88;11.95;;;;;;;11.15;80.81;101486.00;4935654;28;20031;-78
2021/11/20 05:00:53;;;;;;;18.90;12.48;;;;;;;11.13;81.13;101478.09;4965975;28;20030;-81
2021/11/20 05:03:25;;;;;;;23.13;13.40;;;;;;;11.17;80.91;101484.28;4951532;28;20497;-79
2021/11/20 05:05:54;;;;;;;20.35;13.07;;;;;;;11.17;81.03;101481.63;4966560;28;20520;-79
2021/11/20 05:08:23;;;;;;;20.48;13.65;;;;;;;11.19;80.48;101478.13;4982471;28;20490;-82
2021/11/20 05:10:53;;;;;;;26.90;13.00;;;;;;;11.18;80.17;101475.47;4945228;28;20046;-78
2021/11/20 05:13:21;;;;;;;18.63;13.75;;;;;;;11.12;80.95;101480.72;4948079;28;20121;-78
2021/11/20 05:15:51;;;;;;;18.23;12.55;;;;;;;11.17;80.55;101484.28;4961245;28;20093;-78
2021/11/20 05:18:17;;;;;;;19.42;13.32;;;;;;;11.15;80.47;101480.72;4965045;28;20031;-79
2021/11/20 05:20:50;;;;;;;17.88;13.15;;;;;;;11.10;80.61;101475.41;4945419;28;20038;-78
2021/11/20 05:23:16;;;;;;;17.77;13.00;;;;;;;11.12;80.00;101471.03;4967447;28;20125;-80
2021/11/20 05:25:44;;;;;;;19.13;13.45;;;;;;;11.12;80.14;101480.72;4944805;29;20046;-79
2021/11/20 05:28:10;;;;;;;20.75;13.35;;;;;;;11.12;80.23;101483.34;4944935;29;20083;-80
2021/11/20 05:30:40;;;;;;;16.13;11.77;;;;;;;11.16;79.93;101471.91;4957158;28;20031;-78
2021/11/20 05:33:13;;;;;;;22.25;14.73;;;;;;;11.18;80.30;101480.75;4977333;28;20042;-81
2021/11/20 05:35:39;;;;;;;20.58;13.25;;;;;;;11.18;80.19;101480.75;4945399;28;20387;-79
2021/11/20 05:38:06;;;;;;;19.20;13.27;;;;;;;11.16;79.91;101482.50;4967370;28;20037;-79
2021/11/20 05:40:32;;;;;;;18.27;13.93;;;;;;;11.11;80.18;101489.53;4967487;28;20409;-79
2021/11/20 05:43:00;;;;;;;19.02;13.55;;;;;;;11.12;80.47;101486.00;4946678;28;20031;-78
2021/11/20 05:45:31;;;;;;;21.25;14.55;;;;;;;11.07;81.18;101479.81;4956316;28;20027;-78
2021/11/20 05:47:57;;;;;;;18.70;13.52;;;;;;;11.04;81.33;101475.38;4956763;28;20037;-79
2021/11/20 05:50:25;;;;;;;15.00;12.40;;;;;;;11.06;81.00;101480.69;4963594;28;20437;-79
2021/11/20 05:52:52;;;;;;;20.58;13.57;;;;;;;11.06;81.46;101476.28;4966711;28;20038;-82
2021/11/20 05:55:19;;;;;;;20.08;14.13;;;;;;;11.02;81.55;101479.75;4943347;28;20043;-79
2021/11/20 05:57:45;;;;;;;18.33;14.00;;;;;;;11.02;82.05;101484.16;4960405;28;20397;-79
2021/11/20 06:00:17;;;;;;;19.77;14.90;;;;;;;11.01;82.49;101487.69;4964234;28;20031;-81
2021/11/20 06:02:54;;;;;;;17.30;13.38;;;;;;;10.99;82.38;101494.72;4962269;28;20528;-82
2021/11/20 06:05:28;;;;;;;20.08;14.77;;;;;;;10.87;83.11;101491.13;4961574;28;20041;-78
2021/11/20 06:07:53;;;;;;;19.90;13.90;;;;;;;10.95;82.58;101493.78;4966377;28;20057;-79
2021/11/20 06:10:20;;;;;;;19.48;14.50;;;;;;;10.85;83.78;101492.84;4965255;28;20058;-78
2021/11/20 06:12:46;;;;;;;22.17;15.13;;;;;;;10.78;84.06;101488.38;4966730;28;20368;-78
2021/11/20 06:15:12;;;;;;;22.08;14.60;;;;;;;10.77;84.27;101491.91;4965806;28;20046;-78
2021/11/20 06:17:39;;;;;;;22.55;13.50;;;;;;;10.72;84.56;101491.88;4948275;28;20035;-79
2021/11/20 06:20:06;;;;;;;21.90;14.68;;;;;;;10.79;84.19;101486.63;4966177;28;20459;-79
2021/11/20 06:22:33;;;;;;;20.83;15.18;;;;;;;10.77;85.05;101488.34;4947895;28;20033;-82
2021/11/20 06:25:00;;;;;;;23.33;14.88;;;;;;;10.77;85.18;101499.84;4966318;28;20031;-78
2021/11/20 06:27:25;;;;;;;19.23;14.23;;;;;;;10.79;85.05;101505.09;4963656;28;20497;-80
2021/11/20 06:30:00;;;;;;;20.17;14.52;;;;;;;10.69;85.36;101512.97;4965923;28;20046;-79
2021/11/20 06:32:26;;;;;;;19.48;14.57;;;;;;;10.69;85.61;101514.72;4964091;28;20031;-79
2021/11/20 06:35:10;;;;;;;21.45;14.48;;;;;;;10.65;85.57;101511.16;4964212;28;20069;-78
2021/11/20 06:37:44;;;;;;;18.55;13.68;;;;;;;10.69;85.13;101514.72;4943969;29;20043;-79
2021/11/20 06:40:39;;;;;;;20.52;13.95;;;;;;;10.79;85.02;101527.09;4960086;28;20035;-78
2021/11/20 06:43:09;;;;;;;22.88;14.38;;;;;;;10.68;85.37;101526.13;4955966;28;20545;-82
2021/11/20 06:45:38;;;;;;;19.55;14.75;;;;;;;10.71;84.83;101526.16;4928161;29;20533;-79
2021/11/20 06:48:04;;;;;;;20.13;14.43;;;;;;;10.75;84.81;101525.34;4963110;28;20065;-78
2021/11/20 06:50:32;;;;;;;22.33;15.68;;;;;;;10.83;84.38;101525.41;4963924;28;20050;-78
2021/11/20 06:53:18;;;;;;;21.13;14.52;;;;;;;10.79;84.35;101528.88;4979926;28;20125;-79
2021/11/20 06:56:02;;;;;;;22.42;16.08;;;;;;;10.79;84.42;101526.22;4977180;28;20054;-79
2021/11/20 07:01:23;;;;;;;18.52;14.40;;;;;;;10.75;85.10;101522.69;4963110;28;20049;-81
2021/11/20 07:03:58;;;;;;;20.88;15.07;;;;;;;10.76;84.87;101527.09;4927831;29;20031;-78
2021/11/20 07:06:46;;;;;;;23.17;15.40;;;;;;;10.81;85.00;101524.50;4948271;28;20584;-80
2021/11/20 07:09:12;;;;;;;28.45;16.02;;;;;;;10.82;84.50;101527.16;4986314;28;20031;-78
2021/11/20 07:11:38;;;;;;;19.77;14.85;;;;;;;10.90;83.91;101525.47;4973937;28;20180;-78
2021/11/20 07:14:05;;;;;;;21.48;14.15;;;;;;;10.97;84.03;101521.97;4971796;28;20023;-78
2021/11/20 07:16:31;;;;;;;18.58;14.18;;;;;;;11.04;83.00;101514.13;4938475;28;20039;-78
2021/11/20 07:18:57;;;;;;;20.23;13.77;;;;;;;11.07;83.45;101517.66;4966254;28;20497;-79
2021/11/20 07:21:42;;;;;;;20.98;15.63;;;;;;;11.08;82.59;101516.81;4980798;28;20050;-79
2021/11/20 07:24:15;;;;;;;18.90;14.60;;;;;;;11.14;82.01;101514.19;4950768;28;20066;-79
2021/11/20 07:26:41;;;;;;;19.00;14.35;;;;;;;11.21;82.08;101512.47;4969307;28;20516;-79
2021/11/20 07:29:07;;;;;;;17.95;13.40;;;;;;;11.26;81.40;101510.75;4967036;28;20536;-79
2021/11/20 07:31:55;;;;;;;21.63;15.48;;;;;;;11.19;81.37;101503.69;4953099;28;20178;-79
2021/11/20 07:34:21;;;;;;;21.13;14.23;;;;;;;11.25;81.40;101503.69;4966623;28;20071;-78
2021/11/20 07:36:46;;;;;;;18.65;13.95;;;;;;;11.31;81.30;101503.72;4952923;28;20122;-78
2021/11/20 07:39:15;;;;;;;20.90;14.68;;;;;;;11.31;80.93;101508.13;4967614;28;20652;-78
2021/11/20 07:41:41;;;;;;;18.52;12.95;;;;;;;11.30;80.34;101498.44;4936677;28;20029;-82
2021/11/20 07:44:08;;;;;;;19.13;13.95;;;;;;;11.35;80.61;101505.53;4965332;28;20034;-79
2021/11/20 07:46:35;;;;;;;18.30;14.48;;;;;;;11.38;80.15;101497.63;4967802;28;20038;-78
2021/11/20 07:49:04;;;;;;;17.95;14.70;;;;;;;11.41;80.06;101500.28;4968344;28;20038;-79
2021/11/20 07:51:35;;;;;;;21.55;14.85;;;;;;;11.48;79.81;101502.97;4966894;28;20034;-81
2021/11/20 07:54:02;;;;;;;18.95;14.20;;;;;;;11.52;79.75;101489.75;4968034;28;20034;-78
2021/11/20 07:56:29;;;;;;;19.38;14.70;;;;;;;11.53;79.13;101494.19;4969335;28;20030;-79
2021/11/20 07:58:58;;;;;;;25.77;16.85;;;;;;;11.46;79.77;101491.50;4966948;28;20081;-78
2021/11/20 08:01:25;;;;;;;19.55;14.23;;;;;;;11.49;79.56;101487.09;4968915;28;20461;-78
2021/11/20 08:03:50;;;;;;;18.75;15.05;;;;;;;11.52;79.25;101489.75;4986151;28;20077;-78
2021/11/20 08:06:54;;;;;;;21.02;14.63;;;;;;;11.61;78.88;101484.53;4909288;29;20054;-78
2021/11/20 08:09:32;;;;;;;21.42;14.95;;;;;;;11.67;78.72;101490.72;4909777;29;20064;-77
2021/11/20 08:11:58;;;;;;;23.40;15.93;;;;;;;11.67;78.45;101488.97;4933574;28;20038;-78
2021/11/20 08:14:35;;;;;;;18.50;13.63;;;;;;;11.65;78.06;101493.34;4965532;28;20031;-78
2021/11/20 08:17:03;;;;;;;22.02;15.00;;;;;;;11.65;78.46;101484.53;4969056;28;20046;-78
2021/11/20 08:19:55;;;;;;;21.10;15.25;;;;;;;11.69;78.27;101478.41;4967643;28;20112;-78
2021/11/20 08:22:40;;;;;;;21.63;14.90;;;;;;;11.66;77.88;101484.56;4985543;28;20042;-78
2021/11/20 08:25:10;;;;;;;22.13;14.52;;;;;;;11.61;78.60;101470.44;4968165;28;20378;-78
2021/11/20 08:27:36;;;;;;;18.60;14.48;;;;;;;11.62;78.56;101477.47;4970073;28;20441;-78
2021/11/20 08:30:09;;;;;;;20.60;15.10;;;;;;;11.67;78.31;101469.56;4967858;28;20034;-78
2021/11/20 08:32:46;;;;;;;19.85;14.15;;;;;;;11.67;77.83;101470.44;4951318;28;20387;-78
2021/11/20 08:35:28;;;;;;;19.55;14.25;;;;;;;11.73;77.62;101466.94;4965428;28;20042;-78
2021/11/20 08:38:07;;;;;;;19.20;14.60;;;;;;;11.75;77.90;101468.72;4947302;29;20031;-78
2021/11/20 08:40:45;;;;;;;20.80;14.95;;;;;;;11.79;77.52;101469.63;4965388;28;20043;-78
2021/11/20 08:43:12;;;;;;;18.98;14.18;;;;;;;11.75;77.22;101463.44;4986193;28;20035;-78
2021/11/20 08:45:43;;;;;;;22.02;14.30;;;;;;;11.75;77.61;101463.44;4968313;28;20035;-78
2021/11/20 08:48:11;;;;;;;22.08;15.40;;;;;;;11.76;77.90;101462.56;4968954;28;20038;-77
2021/11/20 08:50:39;;;;;;;21.73;14.13;;;;;;;11.75;77.62;101458.13;4952255;28;20034;-78
2021/11/20 08:53:07;;;;;;;21.13;13.80;;;;;;;11.70;77.24;101464.28;4968525;28;20031;-78
2021/11/20 08:55:34;;;;;;;21.67;14.30;;;;;;;11.77;77.41;101456.38;4952262;28;20061;-78
2021/11/20 08:58:17;;;;;;;19.30;14.07;;;;;;;11.75;77.51;101463.44;4966755;28;20505;-78
2021/11/20 09:00:46;;;;;;;19.95;14.70;;;;;;;11.75;77.55;101463.44;4954212;28;20030;-77
2021/11/20 09:03:35;;;;;;;16.37;13.07;;;;;;;11.85;77.03;101459.94;4965129;28;20067;-78
2021/11/20 09:06:19;;;;;;;17.98;13.93;;;;;;;11.90;76.93;101456.47;4967852;28;20041;-78
2021/11/20 09:09:28;;;;;;;16.65;13.15;;;;;;;11.85;77.04;101459.94;4947653;28;20035;-78
2021/11/20 09:12:03;;;;;;;20.23;13.63;;;;;;;11.91;76.76;101453.81;4950837;28;20039;-78
2021/11/20 09:14:43;;;;;;;17.40;13.25;;;;;;;11.89;76.51;101449.41;4966645;28;20038;-78
2021/11/20 09:17:18;;;;;;;19.13;13.57;;;;;;;11.93;76.44;101451.19;4963783;28;20043;-77
2021/11/20 09:19:45;;;;;;;15.10;12.80;;;;;;;11.94;76.67;101451.16;4968504;28;20034;-78
2021/11/20 09:22:12;;;;;;;18.30;13.70;;;;;;;11.93;76.37;101445.91;4967794;28;20494;-78
2021/11/20 09:25:01;;;;;;;18.60;13.70;;;;;;;12.09;76.20;101452.09;4979869;28;20493;-78
2021/11/20 09:27:29;;;;;;;18.63;14.35;;;;;;;12.09;76.10;101449.47;4969907;28;20038;-78
2021/11/20 09:29:55;;;;;;;21.55;15.00;;;;;;;12.12;75.98;101454.75;4966051;28;20038;-78
2021/11/20 09:32:22;;;;;;;20.50;14.45;;;;;;;12.07;75.93;101444.16;4946706;29;20410;-78
2021/11/20 09:34:50;;;;;;;16.33;13.18;;;;;;;12.11;75.68;101451.22;4950503;28;20041;-80
2021/11/20 09:37:43;;;;;;;22.13;15.85;;;;;;;12.13;76.21;101446.84;4941382;28;20049;-80
2021/11/20 09:40:17;;;;;;;21.38;13.57;;;;;;;12.03;75.54;101440.63;4962758;28;20098;-80
2021/11/20 09:42:51;;;;;;;20.73;13.38;;;;;;;12.05;75.94;101436.22;4962743;28;20043;-80
2021/11/20 09:45:27;;;;;;;20.70;13.35;;;;;;;12.07;75.61;101434.44;4967321;28;20668;-79
2021/11/20 09:48:09;;;;;;;23.58;15.05;;;;;;;12.05;75.82;101425.66;4966859;28;20038;-79
2021/11/20 09:50:42;;;;;;;19.40;13.10;;;;;;;12.14;75.66;101419.47;4947100;29;20043;-80
2021/11/20 09:53:09;;;;;;;20.88;12.80;;;;;;;12.09;75.32;101412.41;4969495;28;20058;-79
2021/11/20 09:55:40;;;;;;;15.90;12.07;;;;;;;12.09;75.52;101409.78;4983609;28;20117;-80
2021/11/20 09:58:17;;;;;;;20.55;12.85;;;;;;;12.12;75.25;101402.72;4963520;28;20047;-80
2021/11/20 10:01:13;;;;;;;16.63;12.52;;;;;;;12.09;75.52;101404.47;4964701;28;20053;-80
2021/11/20 10:04:08;;;;;;;19.10;12.48;;;;;;;12.01;75.29;101404.47;4982249;28;20043;-80
2021/11/20 10:06:44;;;;;;;19.60;14.50;;;;;;;12.11;74.76;101398.31;4982521;28;20396;-80
2021/11/20 10:09:12;;;;;;;20.13;13.75;;;;;;;12.13;75.31;101401.84;4985137;28;20038;-79
2021/11/20 10:11:54;;;;;;;19.63;14.20;;;;;;;12.16;74.42;101401.84;4952728;28;20046;-80
2021/11/20 10:14:29;;;;;;;17.77;13.50;;;;;;;12.09;74.81;101394.78;4962285;28;20035;-80
2021/11/20 10:17:00;;;;;;;20.35;14.07;;;;;;;12.09;74.48;101389.47;4981975;28;20045;-80
2021/11/20 10:19:32;;;;;;;22.88;14.50;;;;;;;12.10;74.60;101391.22;4968359;28;20034;-80
2021/11/20 10:21:57;;;;;;;21.13;13.95;;;;;;;12.17;74.50;101384.19;4985452;28;20034;-80
2021/11/20 10:24:48;;;;;;;22.60;13.90;;;;;;;12.19;74.43;101385.97;4985314;28;20046;-80
2021/11/20 10:27:19;;;;;;;18.75;13.63;;;;;;;12.30;74.42;101377.16;4980756;28;20135;-80
2021/11/20 10:30:03;;;;;;;15.93;11.52;;;;;;;12.22;73.43;101370.09;4968315;28;20485;-80
2021/11/20 10:32:53;;;;;;;15.73;12.32;;;;;;;12.21;73.37;101364.81;4952510;28;20049;-80
2021/11/20 10:35:21;;;;;;;15.05;11.23;;;;;;;12.21;74.00;101362.16;4950681;28;20043;-80
2021/11/20 10:38:04;;;;;;;17.42;11.15;;;;;;;12.17;74.36;101357.75;4984618;28;20125;-80
2021/11/20 10:40:55;;;;;;;17.90;11.93;;;;;;;12.13;74.55;101354.22;4980316;28;20429;-80
2021/11/20 10:43:25;;;;;;;16.42;11.63;;;;;;;12.21;74.33;101351.56;4989109;28;20034;-79
2021/11/20 10:46:13;;;;;;;13.25;10.70;;;;;;;12.20;74.32;101348.03;4975718;28;20027;-80
2021/11/20 10:48:43;;;;;;;15.65;10.98;;;;;;;12.10;74.48;101348.03;4977749;28;20116;-79
2021/11/20 10:51:21;;;;;;;18.02;10.20;;;;;;;12.09;74.14;101349.78;4973046;28;20560;-79
2021/11/20 10:53:58;;;;;;;14.75;10.73;;;;;;;12.09;75.28;101348.91;4985240;28;20042;-80
2021/11/20 10:56:31;;;;;;;17.65;10.40;;;;;;;12.09;74.79;101351.56;4987598;28;20127;-80
2021/11/20 10:59:18;;;;;;;14.05;10.05;;;;;;;12.10;74.54;101342.72;4991624;28;20059;-80
2021/11/20 11:01:53;;;;;;;15.20;10.80;;;;;;;12.07;74.55;101351.53;4986134;28;20041;-80
2021/11/20 11:04:37;;;;;;;16.30;10.95;;;;;;;12.12;74.57;101341.84;4991867;28;20049;-79
2021/11/20 11:07:15;;;;;;;17.83;10.93;;;;;;;12.00;75.12;101341.88;4992539;28;20053;-80
2021/11/20 11:09:51;;;;;;;17.23;10.98;;;;;;;12.05;75.16;101333.03;4987140;28;20505;-80
2021/11/20 11:12:31;;;;;;;14.48;11.32;;;;;;;12.07;74.92;101333.91;4973171;28;20520;-80
2021/11/20 11:15:31;;;;;;;18.10;12.63;;;;;;;12.09;74.68;101325.97;4975140;28;20113;-80
2021/11/20 11:18:29;;;;;;;17.42;11.60;;;;;;;12.18;74.65;101315.41;4985444;28;20034;-80
2021/11/20 11:21:15;;;;;;;16.02;12.40;;;;;;;12.13;75.03;101317.16;4985464;28;20039;-80
2021/11/20 11:23:53;;;;;;;15.55;12.52;;;;;;;12.20;74.62;101318.91;4956337;28;20039;-80
2021/11/20 11:26:18;;;;;;;16.25;12.05;;;;;;;12.20;75.50;101318.91;4988948;28;20045;-80
2021/11/20 11:29:15;;;;;;;17.92;13.52;;;;;;;12.24;74.38;101310.09;4992085;28;20042;-80
2021/11/20 11:31:43;;;;;;;21.77;13.85;;;;;;;12.23;74.92;101308.31;4974805;28;20034;-80
2021/11/20 11:34:20;;;;;;;16.55;12.30;;;;;;;12.30;74.98;101303.03;4989308;28;20055;-80
2021/11/20 11:37:30;;;;;;;16.63;13.65;;;;;;;12.20;75.58;101304.81;4986479;28;20031;-79
2021/11/20 11:40:33;;;;;;;20.40;13.60;;;;;;;12.17;75.55;101291.59;4972070;28;20693;-80